Time;durP1;ratioP1;P1;durP2;ratioP2;P2;SDS_P1;SDS_P2;PMS_P1;PMS_P2;Temp;Humidity;BMP_temperature;BMP_pressure;BME280_temperature;BME280_humidity;BME280_pressure;Samples;Min_cycle;Max_cycle;Signal;HPM_P1;HPM_P2
2023/10/19 00:02:31;;;;;;;;;;;;;;;;;;6330555;27;19989;-82
2023/10/19 00:05:32;;;;;;;;;;;;;;;;;;6320602;28;19918;-82
2023/10/19 00:08:41;;;;;;;;;;;;;;;;;;6313367;28;19913;-83
2023/10/19 00:11:42;;;;;;;;;;;;;;;;;;6311779;28;20011;-82
2023/10/19 00:14:42;;;;;;;;;;;;;;;;;;6323739;28;19914;-82
2023/10/19 00:17:44;;;;;;;;;;;;;;;;;;6309879;28;19912;-82
2023/10/19 00:23:47;;;;;;;;;;;;;;;;;;6327445;28;19977;-82
2023/10/19 00:26:48;;;;;;;;;;;;;;;;;;6304503;28;19907;-82
2023/10/19 00:29:49;;;;;;;;;;;;;;;;;;6314892;28;19962;-82
2023/10/19 00:32:50;;;;;;;;;;;;;;;;;;6332183;28;20011;-82
2023/10/19 00:36:06;;;;;;;;;;;;;;;;;;6331095;28;20344;-83
2023/10/19 00:39:15;;;;;;;;;;;;;;;;;;6304210;28;19911;-83
2023/10/19 00:42:31;;;;;;;;;;;;;;;;;;6322272;28;19923;-83
2023/10/19 00:45:33;;;;;;;;;;;;;;;;;;6334455;28;20370;-82
2023/10/19 00:48:34;;;;;;;;;;;;;;;;;;6306832;28;19964;-82
2023/10/19 00:54:42;;;;;;;;;;;;;;;;;;6330476;27;19950;-83
2023/10/19 00:57:42;;;;;;;;;;;;;;;;;;6336862;28;19998;-86
2023/10/19 01:00:45;;;;;;;;;;;;;;;;;;6332748;27;19972;-85
2023/10/19 01:03:52;;;;;;;;;;;;;;;;;;6323170;28;19993;-86
2023/10/19 01:07:12;;;;;;;;;;;;;;;;;;6314790;28;19912;-85
2023/10/19 01:10:19;;;;;;;;;;;;;;;;;;6329646;28;19916;-85
2023/10/19 01:13:26;;;;;;;;;;;;;;;;;;6312645;28;19911;-85
2023/10/19 01:16:27;;;;;;;;;;;;;;;;;;6305763;28;19916;-86
2023/10/19 01:19:27;;;;;;;;;;;;;;;;;;6319337;28;19912;-85
2023/10/19 01:22:27;;;;;;;;;;;;;;;;;;6295125;28;19922;-85
2023/10/19 01:25:34;;;;;;;;;;;;;;;;;;6331687;28;19912;-85
2023/10/19 01:31:52;;;;;;;;;;;;;;;;;;6325983;28;19911;-85
2023/10/19 01:34:52;;;;;;;;;;;;;;;;;;6339962;28;20328;-85
2023/10/19 01:37:52;;;;;;;;;;;;;;;;;;6321760;28;20460;-85
2023/10/19 01:40:54;;;;;;;;;;;;;;;;;;6326913;28;19915;-85
2023/10/19 01:43:54;;;;;;;;;;;;;;;;;;6330900;28;20374;-85
2023/10/19 01:46:55;;;;;;;;;;;;;;;;;;6316878;28;19916;-85
2023/10/19 01:50:00;;;;;;;;;;;;;;;;;;6324454;28;19919;-85
2023/10/19 01:53:08;;;;;;;;;;;;;;;;;;6321659;28;19912;-85
2023/10/19 01:56:12;;;;;;;;;;;;;;;;;;6312779;28;20020;-85
2023/10/19 01:59:16;;;;;;;;;;;;;;;;;;6321450;28;19916;-85
2023/10/19 02:02:16;;;;;;;;;;;;;;;;;;6313732;28;20323;-85
2023/10/19 02:05:18;;;;;;;;;;;;;;;;;;6311807;28;19919;-85
2023/10/19 02:08:25;;;;;;;;;;;;;;;;;;6320300;28;19912;-81
2023/10/19 02:11:28;;;;;;;;;;;;;;;;;;6333046;28;21471;-82
2023/10/19 02:14:28;;;;;;;;;;;;;;;;;;6338537;28;19947;-82
2023/10/19 02:17:30;;;;;;;;;;;;;;;;;;6323514;28;20016;-82
2023/10/19 02:20:31;;;;;;;;;;;;;;;;;;6322172;28;19916;-82
2023/10/19 02:23:33;;;;;;;;;;;;;;;;;;6311117;28;19912;-82
2023/10/19 02:26:34;;;;;;;;;;;;;;;;;;6324968;27;19922;-82
2023/10/19 02:29:36;;;;;;;;;;;;;;;;;;6317042;28;19909;-85
2023/10/19 02:32:36;;;;;;;;;;;;;;;;;;6331863;28;19919;-84
2023/10/19 02:35:37;;;;;;;;;;;;;;;;;;6312587;28;19908;-85
2023/10/19 02:38:37;;;;;;;;;;;;;;;;;;6330472;28;19908;-84
2023/10/19 02:41:37;;;;;;;;;;;;;;;;;;6316880;28;19998;-85
2023/10/19 02:44:38;;;;;;;;;;;;;;;;;;6326199;28;19948;-84
2023/10/19 02:47:41;;;;;;;;;;;;;;;;;;6304613;28;19912;-84
2023/10/19 02:50:41;;;;;;;;;;;;;;;;;;6346195;27;20445;-85
2023/10/19 02:53:42;;;;;;;;;;;;;;;;;;6322701;28;19908;-84
2023/10/19 02:56:42;;;;;;;;;;;;;;;;;;6318821;28;19912;-84
2023/10/19 02:59:46;;;;;;;;;;;;;;;;;;6335290;27;19974;-84
2023/10/19 03:02:46;;;;;;;;;;;;;;;;;;6345418;27;19916;-85
2023/10/19 03:05:46;;;;;;;;;;;;;;;;;;6309006;28;19919;-84
2023/10/19 03:08:47;;;;;;;;;;;;;;;;;;6303799;28;19935;-84
2023/10/19 03:11:47;;;;;;;;;;;;;;;;;;6308001;28;19940;-84
2023/10/19 03:14:48;;;;;;;;;;;;;;;;;;6326534;28;19919;-84
2023/10/19 03:17:48;;;;;;;;;;;;;;;;;;6329267;28;19919;-84
2023/10/19 03:20:50;;;;;;;;;;;;;;;;;;6337473;28;20366;-84
2023/10/19 03:23:51;;;;;;;;;;;;;;;;;;6325491;28;20504;-84
2023/10/19 03:26:51;;;;;;;;;;;;;;;;;;6321603;28;19912;-85
2023/10/19 03:29:54;;;;;;;;;;;;;;;;;;6321493;28;19924;-84
2023/10/19 03:32:54;;;;;;;;;;;;;;;;;;6319752;28;19919;-84
2023/10/19 03:35:55;;;;;;;;;;;;;;;;;;6330947;28;20002;-84
2023/10/19 03:38:56;;;;;;;;;;;;;;;;;;6324721;28;20275;-84
2023/10/19 03:41:57;;;;;;;;;;;;;;;;;;6336520;28;19922;-84
2023/10/19 03:44:57;;;;;;;;;;;;;;;;;;6321493;28;19912;-84
2023/10/19 03:48:00;;;;;;;;;;;;;;;;;;6328500;28;19908;-85
2023/10/19 03:51:02;;;;;;;;;;;;;;;;;;6335808;27;19960;-84
2023/10/19 03:54:09;;;;;;;;;;;;;;;;;;6329733;28;19994;-84
2023/10/19 03:57:12;;;;;;;;;;;;;;;;;;6302116;28;20374;-84
2023/10/19 04:00:16;;;;;;;;;;;;;;;;;;6308102;28;19931;-84
2023/10/19 04:03:24;;;;;;;;;;;;;;;;;;6317273;28;19919;-84
2023/10/19 04:06:25;;;;;;;;;;;;;;;;;;6332723;28;19911;-84
2023/10/19 04:09:30;;;;;;;;;;;;;;;;;;6328429;28;20370;-85
2023/10/19 04:12:31;;;;;;;;;;;;;;;;;;6323572;28;20285;-85
2023/10/19 04:15:35;;;;;;;;;;;;;;;;;;6308341;28;19942;-85
2023/10/19 04:18:39;;;;;;;;;;;;;;;;;;6308800;28;20024;-86
2023/10/19 04:21:43;;;;;;;;;;;;;;;;;;6335687;28;19968;-85
2023/10/19 04:24:44;;;;;;;;;;;;;;;;;;6341270;28;19919;-86
2023/10/19 04:27:44;;;;;;;;;;;;;;;;;;6321772;28;19973;-83
2023/10/19 04:30:44;;;;;;;;;;;;;;;;;;6305688;28;19914;-83
2023/10/19 04:33:49;;;;;;;;;;;;;;;;;;6331551;28;20388;-82
2023/10/19 04:36:49;;;;;;;;;;;;;;;;;;6317654;28;20010;-83
2023/10/19 04:39:55;;;;;;;;;;;;;;;;;;6313641;28;20037;-83
2023/10/19 04:42:56;;;;;;;;;;;;;;;;;;6315829;28;20377;-83
2023/10/19 04:45:56;;;;;;;;;;;;;;;;;;6331518;28;19923;-83
2023/10/19 04:48:59;;;;;;;;;;;;;;;;;;6336226;27;19937;-87
2023/10/19 04:51:59;;;;;;;;;;;;;;;;;;6339970;27;19911;-87
2023/10/19 04:54:59;;;;;;;;;;;;;;;;;;6343222;28;19919;-87
2023/10/19 04:57:59;;;;;;;;;;;;;;;;;;6325593;28;19920;-86
2023/10/19 05:00:59;;;;;;;;;;;;;;;;;;6326435;28;19963;-87
2023/10/19 05:04:00;;;;;;;;;;;;;;;;;;6318357;28;19950;-87
2023/10/19 05:07:01;;;;;;;;;;;;;;;;;;6333239;28;19916;-87
2023/10/19 05:10:02;;;;;;;;;;;;;;;;;;6315525;28;19916;-87
2023/10/19 05:13:03;;;;;;;;;;;;;;;;;;6317805;28;19916;-88
2023/10/19 05:16:03;;;;;;;;;;;;;;;;;;6333508;27;20392;-88
2023/10/19 05:19:04;;;;;;;;;;;;;;;;;;6334343;28;20010;-89
2023/10/19 05:22:05;;;;;;;;;;;;;;;;;;6312490;28;19978;-88
2023/10/19 05:25:07;;;;;;;;;;;;;;;;;;6310744;28;19912;-88
2023/10/19 05:28:08;;;;;;;;;;;;;;;;;;6318469;28;20002;-89
2023/10/19 05:31:08;;;;;;;;;;;;;;;;;;6335467;28;19919;-89
2023/10/19 05:34:08;;;;;;;;;;;;;;;;;;6325275;28;20260;-89
2023/10/19 05:37:10;;;;;;;;;;;;;;;;;;6339730;28;20434;-89
2023/10/19 05:40:12;;;;;;;;;;;;;;;;;;6312494;28;19923;-89
2023/10/19 05:43:12;;;;;;;;;;;;;;;;;;6333056;28;19947;-89
2023/10/19 05:46:13;;;;;;;;;;;;;;;;;;6330900;28;19936;-89
2023/10/19 05:49:16;;;;;;;;;;;;;;;;;;6314808;28;20010;-90
2023/10/19 05:52:16;;;;;;;;;;;;;;;;;;6318965;28;19915;-90
2023/10/19 05:55:17;;;;;;;;;;;;;;;;;;6334132;28;19999;-90
2023/10/19 05:58:17;;;;;;;;;;;;;;;;;;6349841;27;20371;-90
2023/10/19 06:01:18;;;;;;;;;;;;;;;;;;6326703;27;20017;-90
2023/10/19 06:04:18;;;;;;;;;;;;;;;;;;6314452;28;19927;-88
2023/10/19 06:07:19;;;;;;;;;;;;;;;;;;6340381;27;19916;-87
2023/10/19 06:10:20;;;;;;;;;;;;;;;;;;6346143;27;20010;-87
2023/10/19 06:13:20;;;;;;;;;;;;;;;;;;6325763;28;19909;-88
2023/10/19 06:16:21;;;;;;;;;;;;;;;;;;6317873;27;19912;-88
2023/10/19 06:19:21;;;;;;;;;;;;;;;;;;6308369;28;19916;-88
2023/10/19 06:22:21;;;;;;;;;;;;;;;;;;6342025;27;19955;-89
2023/10/19 06:25:21;;;;;;;;;;;;;;;;;;6320359;28;19916;-89
2023/10/19 06:28:21;;;;;;;;;;;;;;;;;;6331333;27;19923;-89
2023/10/19 06:31:22;;;;;;;;;;;;;;;;;;6314597;28;19919;-89
2023/10/19 06:34:22;;;;;;;;;;;;;;;;;;6314814;28;19912;-90
2023/10/19 06:37:22;;;;;;;;;;;;;;;;;;6315726;28;19916;-90
2023/10/19 06:40:22;;;;;;;;;;;;;;;;;;6314421;28;20315;-90
2023/10/19 06:43:27;;;;;;;;;;;;;;;;;;6324872;28;19919;-89
2023/10/19 06:46:28;;;;;;;;;;;;;;;;;;6325636;28;20285;-88
2023/10/19 06:49:28;;;;;;;;;;;;;;;;;;6315223;28;19908;-86
2023/10/19 06:52:28;;;;;;;;;;;;;;;;;;6321714;28;19991;-87
2023/10/19 06:55:28;;;;;;;;;;;;;;;;;;6315911;28;19919;-87
2023/10/19 06:58:29;;;;;;;;;;;;;;;;;;6329284;28;19908;-88
2023/10/19 07:01:31;;;;;;;;;;;;;;;;;;6321437;28;19904;-87
2023/10/19 07:04:31;;;;;;;;;;;;;;;;;;6343378;28;19959;-87
2023/10/19 07:07:31;;;;;;;;;;;;;;;;;;6330988;28;19971;-90
2023/10/19 07:10:32;;;;;;;;;;;;;;;;;;6372054;27;19943;-91
2023/10/19 07:13:33;;;;;;;;;;;;;;;;;;6368474;27;19919;-91
2023/10/19 07:16:34;;;;;;;;;;;;;;;;;;6347914;28;19904;-91
2023/10/19 07:19:36;;;;;;;;;;;;;;;;;;6331013;28;19919;-89
2023/10/19 07:22:41;;;;;;;;;;;;;;;;;;6338802;28;19990;-88
2023/10/19 07:25:44;;;;;;;;;;;;;;;;;;6342540;28;19937;-90
2023/10/19 07:28:44;;;;;;;;;;;;;;;;;;6330734;28;19919;-90
2023/10/19 07:31:44;;;;;;;;;;;;;;;;;;6340042;28;19896;-90
2023/10/19 07:34:45;;;;;;;;;;;;;;;;;;6311836;28;19916;-90
2023/10/19 07:37:45;;;;;;;;;;;;;;;;;;6320919;28;19912;-91
2023/10/19 07:40:45;;;;;;;;;;;;;;;;;;6318003;28;19953;-90
2023/10/19 07:43:46;;;;;;;;;;;;;;;;;;6313944;28;19917;-91
2023/10/19 07:46:46;;;;;;;;;;;;;;;;;;6314270;28;20389;-91
2023/10/19 07:49:48;;;;;;;;;;;;;;;;;;6322527;28;19912;-92
2023/10/19 07:52:48;;;;;;;;;;;;;;;;;;6338170;28;19923;-91
2023/10/19 07:55:48;;;;;;;;;;;;;;;;;;6317566;28;20266;-91
2023/10/19 07:58:49;;;;;;;;;;;;;;;;;;6324129;28;19922;-89
2023/10/19 08:01:49;;;;;;;;;;;;;;;;;;6316820;28;20018;-90
2023/10/19 08:04:49;;;;;;;;;;;;;;;;;;6334160;27;19919;-91
2023/10/19 08:07:49;;;;;;;;;;;;;;;;;;6323495;28;19961;-91
2023/10/19 08:10:49;;;;;;;;;;;;;;;;;;6338684;28;19980;-91
2023/10/19 08:13:50;;;;;;;;;;;;;;;;;;6324120;28;19908;-90
2023/10/19 08:16:50;;;;;;;;;;;;;;;;;;6321969;28;19955;-90
2023/10/19 08:19:50;;;;;;;;;;;;;;;;;;6324800;28;19919;-88
2023/10/19 08:22:51;;;;;;;;;;;;;;;;;;6320343;28;19938;-89
2023/10/19 08:25:51;;;;;;;;;;;;;;;;;;6345249;28;19918;-88
2023/10/19 08:28:51;;;;;;;;;;;;;;;;;;6344085;27;19918;-89
2023/10/19 08:31:51;;;;;;;;;;;;;;;;;;6313507;28;19965;-89
2023/10/19 08:34:51;;;;;;;;;;;;;;;;;;6307256;28;19970;-90
2023/10/19 08:37:52;;;;;;;;;;;;;;;;;;6316284;28;19937;-89
2023/10/19 08:40:52;;;;;;;;;;;;;;;;;;6321136;27;19908;-89
2023/10/19 08:43:55;;;;;;;;;;;;;;;;;;6310585;28;20019;-89
2023/10/19 08:46:57;;;;;;;;;;;;;;;;;;6308517;28;19912;-89
2023/10/19 08:49:57;;;;;;;;;;;;;;;;;;6317373;28;19912;-89
2023/10/19 08:52:59;;;;;;;;;;;;;;;;;;6320167;28;19919;-89
2023/10/19 08:56:00;;;;;;;;;;;;;;;;;;6304113;28;19912;-88
2023/10/19 08:59:00;;;;;;;;;;;;;;;;;;6334445;28;19916;-89
2023/10/19 09:02:02;;;;;;;;;;;;;;;;;;6313993;28;20006;-89
2023/10/19 09:05:03;;;;;;;;;;;;;;;;;;6333748;28;20366;-89
2023/10/19 09:08:06;;;;;;;;;;;;;;;;;;6305400;28;19965;-87
2023/10/19 09:11:06;;;;;;;;;;;;;;;;;;6310877;28;19943;-89
2023/10/19 09:14:07;;;;;;;;;;;;;;;;;;6314866;28;20289;-89
2023/10/19 09:17:07;;;;;;;;;;;;;;;;;;6330059;28;19907;-89
2023/10/19 09:20:09;;;;;;;;;;;;;;;;;;6306337;28;19915;-89
2023/10/19 09:23:10;;;;;;;;;;;;;;;;;;6314649;28;19923;-89
2023/10/19 09:26:12;;;;;;;;;;;;;;;;;;6329126;28;20323;-89
2023/10/19 09:29:12;;;;;;;;;;;;;;;;;;6320063;28;19908;-89
2023/10/19 09:32:15;;;;;;;;;;;;;;;;;;6316485;28;19961;-88
2023/10/19 09:35:15;;;;;;;;;;;;;;;;;;6315983;28;19945;-89
2023/10/19 09:38:15;;;;;;;;;;;;;;;;;;6318049;28;19912;-89
2023/10/19 09:41:15;;;;;;;;;;;;;;;;;;6317238;28;19930;-88
2023/10/19 09:44:16;;;;;;;;;;;;;;;;;;6321247;28;19911;-89
2023/10/19 09:47:17;;;;;;;;;;;;;;;;;;6312123;28;20278;-89
2023/10/19 09:50:17;;;;;;;;;;;;;;;;;;6324717;28;20422;-89
2023/10/19 09:53:17;;;;;;;;;;;;;;;;;;6311939;28;20035;-89
2023/10/19 09:56:17;;;;;;;;;;;;;;;;;;6311598;28;19912;-89
2023/10/19 09:59:17;;;;;;;;;;;;;;;;;;6308525;28;19973;-89
2023/10/19 10:02:18;;;;;;;;;;;;;;;;;;6310041;28;20490;-89
2023/10/19 10:05:18;;;;;;;;;;;;;;;;;;6314408;28;20635;-89
2023/10/19 10:08:18;;;;;;;;;;;;;;;;;;6313982;28;19912;-90
2023/10/19 10:11:18;;;;;;;;;;;;;;;;;;6309128;28;19912;-89
2023/10/19 10:14:18;;;;;;;;;;;;;;;;;;6305109;28;20329;-89
2023/10/19 10:17:26;;;;;;;;;;;;;;;;;;6312746;28;19987;-89
2023/10/19 10:20:27;;;;;;;;;;;;;;;;;;6301622;28;19981;-88
2023/10/19 10:23:32;;;;;;;;;;;;;;;;;;6313556;28;19916;-89
2023/10/19 10:26:36;;;;;;;;;;;;;;;;;;6295088;28;19973;-88
2023/10/19 10:29:37;;;;;;;;;;;;;;;;;;6308358;28;19908;-89
2023/10/19 10:32:37;;;;;;;;;;;;;;;;;;6316940;28;19918;-88
2023/10/19 10:35:41;;;;;;;;;;;;;;;;;;6324920;28;19908;-88
2023/10/19 10:38:41;;;;;;;;;;;;;;;;;;6325300;28;19922;-88
2023/10/19 10:41:41;;;;;;;;;;;;;;;;;;6330245;28;19912;-89
2023/10/19 10:44:42;;;;;;;;;;;;;;;;;;6307315;28;20353;-88
2023/10/19 10:47:42;;;;;;;;;;;;;;;;;;6315177;28;19909;-88
2023/10/19 10:50:43;;;;;;;;;;;;;;;;;;6327236;28;19929;-88
2023/10/19 10:53:43;;;;;;;;;;;;;;;;;;6337118;27;19916;-88
2023/10/19 10:56:43;;;;;;;;;;;;;;;;;;6323155;28;19912;-88
2023/10/19 10:59:44;;;;;;;;;;;;;;;;;;6310400;28;19932;-89
2023/10/19 11:02:45;;;;;;;;;;;;;;;;;;6315973;28;19959;-88
2023/10/19 11:05:46;;;;;;;;;;;;;;;;;;6331683;28;19924;-89
2023/10/19 11:08:46;;;;;;;;;;;;;;;;;;6336734;28;20250;-88
2023/10/19 11:11:46;;;;;;;;;;;;;;;;;;6315962;28;19931;-89
2023/10/19 11:14:46;;;;;;;;;;;;;;;;;;6305983;27;20431;-90
2023/10/19 11:17:49;;;;;;;;;;;;;;;;;;6331127;28;19947;-90
2023/10/19 11:20:49;;;;;;;;;;;;;;;;;;6311670;28;20556;-90
2023/10/19 11:23:49;;;;;;;;;;;;;;;;;;6333612;27;19916;-88
2023/10/19 11:26:49;;;;;;;;;;;;;;;;;;6323244;27;19911;-89
2023/10/19 11:29:50;;;;;;;;;;;;;;;;;;6315674;28;19915;-90
2023/10/19 11:32:52;;;;;;;;;;;;;;;;;;6310488;28;19916;-90
2023/10/19 11:35:52;;;;;;;;;;;;;;;;;;6329502;28;19973;-90
2023/10/19 11:38:53;;;;;;;;;;;;;;;;;;6330821;28;19911;-89
2023/10/19 11:41:53;;;;;;;;;;;;;;;;;;6343978;27;20007;-89
2023/10/19 11:44:54;;;;;;;;;;;;;;;;;;6331342;28;19918;-89
2023/10/19 11:47:55;;;;;;;;;;;;;;;;;;6330867;27;19920;-85
2023/10/19 11:50:55;;;;;;;;;;;;;;;;;;6312388;28;19912;-85
2023/10/19 11:53:55;;;;;;;;;;;;;;;;;;6331988;28;19919;-85
2023/10/19 11:56:56;;;;;;;;;;;;;;;;;;6334299;28;19931;-85
2023/10/19 11:59:57;;;;;;;;;;;;;;;;;;6334055;28;19924;-86
2023/10/19 12:02:57;;;;;;;;;;;;;;;;;;6330713;27;19997;-85
2023/10/19 12:05:57;;;;;;;;;;;;;;;;;;6317711;28;19922;-85
2023/10/19 12:08:59;;;;;;;;;;;;;;;;;;6332285;27;19908;-85
2023/10/19 12:11:59;;;;;;;;;;;;;;;;;;6305310;28;19998;-85
2023/10/19 12:14:59;;;;;;;;;;;;;;;;;;6310308;28;19912;-85
2023/10/19 12:17:59;;;;;;;;;;;;;;;;;;6336796;28;19923;-84
2023/10/19 12:21:00;;;;;;;;;;;;;;;;;;6330627;28;19912;-85
2023/10/19 12:24:01;;;;;;;;;;;;;;;;;;6335579;28;20611;-85
2023/10/19 12:27:04;;;;;;;;;;;;;;;;;;6336744;27;19912;-84
2023/10/19 12:30:16;;;;;;;;;;;;;;;;;;6313515;28;20293;-85
2023/10/19 12:33:16;;;;;;;;;;;;;;;;;;6327824;28;19923;-85
2023/10/19 12:39:35;;;;;;;;;;;;;;;;;;6322915;28;19912;-84
2023/10/19 12:42:35;;;;;;;;;;;;;;;;;;6317912;28;19981;-85
2023/10/19 12:45:36;;;;;;;;;;;;;;;;;;6328059;28;19951;-84
2023/10/19 12:48:37;;;;;;;;;;;;;;;;;;6327937;28;19934;-85
2023/10/19 12:51:38;;;;;;;;;;;;;;;;;;6314383;27;19922;-84
2023/10/19 12:54:39;;;;;;;;;;;;;;;;;;6331467;28;20366;-85
2023/10/19 12:57:39;;;;;;;;;;;;;;;;;;6325832;28;19940;-85
2023/10/19 13:00:47;;;;;;;;;;;;;;;;;;6327421;28;19931;-85
2023/10/19 13:03:49;;;;;;;;;;;;;;;;;;6314943;28;19931;-85
2023/10/19 13:06:49;;;;;;;;;;;;;;;;;;6333942;27;19920;-85
2023/10/19 13:09:49;;;;;;;;;;;;;;;;;;6311834;28;19919;-85
2023/10/19 13:12:49;;;;;;;;;;;;;;;;;;6316650;28;19973;-85
2023/10/19 13:15:49;;;;;;;;;;;;;;;;;;6320004;28;19959;-85
2023/10/19 13:18:49;;;;;;;;;;;;;;;;;;6312467;28;19920;-85
2023/10/19 13:21:50;;;;;;;;;;;;;;;;;;6330188;27;19916;-85
2023/10/19 13:24:50;;;;;;;;;;;;;;;;;;6317889;28;20068;-86
2023/10/19 13:27:50;;;;;;;;;;;;;;;;;;6336446;28;19920;-86
2023/10/19 13:30:50;;;;;;;;;;;;;;;;;;6313209;28;20385;-86
2023/10/19 13:33:52;;;;;;;;;;;;;;;;;;6322473;28;19920;-86
2023/10/19 13:36:52;;;;;;;;;;;;;;;;;;6315408;28;19912;-86
2023/10/19 13:39:52;;;;;;;;;;;;;;;;;;6331254;28;19919;-87
2023/10/19 13:42:52;;;;;;;;;;;;;;;;;;6316470;28;19919;-86
2023/10/19 13:45:53;;;;;;;;;;;;;;;;;;6315176;28;20410;-86
2023/10/19 13:48:54;;;;;;;;;;;;;;;;;;6332932;28;19924;-86
2023/10/19 13:51:54;;;;;;;;;;;;;;;;;;6327535;28;19913;-86
2023/10/19 13:54:54;;;;;;;;;;;;;;;;;;6324919;28;20013;-86
2023/10/19 13:57:55;;;;;;;;;;;;;;;;;;6317209;28;19947;-86
2023/10/19 14:00:55;;;;;;;;;;;;;;;;;;6302928;28;20384;-85
2023/10/19 14:03:56;;;;;;;;;;;;;;;;;;6319335;28;19935;-86
2023/10/19 14:06:56;;;;;;;;;;;;;;;;;;6341776;28;20400;-90
2023/10/19 14:09:56;;;;;;;;;;;;;;;;;;6336784;28;19958;-90
2023/10/19 14:12:56;;;;;;;;;;;;;;;;;;6341409;28;19912;-90
2023/10/19 14:15:57;;;;;;;;;;;;;;;;;;6310754;27;19926;-89
2023/10/19 14:18:57;;;;;;;;;;;;;;;;;;6346668;27;19931;-89
2023/10/19 14:21:58;;;;;;;;;;;;;;;;;;6319614;27;19965;-90
2023/10/19 14:24:58;;;;;;;;;;;;;;;;;;6307083;28;19908;-89
2023/10/19 14:27:59;;;;;;;;;;;;;;;;;;6324578;27;20412;-90
2023/10/19 14:30:59;;;;;;;;;;;;;;;;;;6334365;28;19966;-90
2023/10/19 14:34:00;;;;;;;;;;;;;;;;;;6313522;28;19923;-90
2023/10/19 14:37:00;;;;;;;;;;;;;;;;;;6320155;28;19908;-90
2023/10/19 14:40:00;;;;;;;;;;;;;;;;;;6335993;27;19918;-90
2023/10/19 14:43:01;;;;;;;;;;;;;;;;;;6331908;28;20330;-89
2023/10/19 14:46:01;;;;;;;;;;;;;;;;;;6333710;28;19912;-90
2023/10/19 14:49:01;;;;;;;;;;;;;;;;;;6343515;27;19985;-90
2023/10/19 14:52:01;;;;;;;;;;;;;;;;;;6312886;28;20543;-90
2023/10/19 14:55:02;;;;;;;;;;;;;;;;;;6337924;28;20289;-90
2023/10/19 14:58:02;;;;;;;;;;;;;;;;;;6337519;28;19908;-90
2023/10/19 15:01:02;;;;;;;;;;;;;;;;;;6327488;28;20294;-90
2023/10/19 15:04:02;;;;;;;;;;;;;;;;;;6321674;28;19916;-90
2023/10/19 15:07:02;;;;;;;;;;;;;;;;;;6328894;28;19930;-90
2023/10/19 15:10:03;;;;;;;;;;;;;;;;;;6330549;28;19912;-90
2023/10/19 15:13:05;;;;;;;;;;;;;;;;;;6335339;28;19912;-90
2023/10/19 15:16:05;;;;;;;;;;;;;;;;;;6323885;28;19912;-89
2023/10/19 15:19:05;;;;;;;;;;;;;;;;;;6320292;28;19911;-86
2023/10/19 15:22:05;;;;;;;;;;;;;;;;;;6318278;27;19912;-86
2023/10/19 15:25:08;;;;;;;;;;;;;;;;;;6315843;28;19908;-86
2023/10/19 15:28:10;;;;;;;;;;;;;;;;;;6304012;28;19951;-86
2023/10/19 15:31:10;;;;;;;;;;;;;;;;;;6326971;28;20358;-87
2023/10/19 15:34:10;;;;;;;;;;;;;;;;;;6319403;28;19915;-87
2023/10/19 15:37:11;;;;;;;;;;;;;;;;;;6336181;28;19916;-87
2023/10/19 15:40:12;;;;;;;;;;;;;;;;;;6329335;28;20487;-87
2023/10/19 15:43:12;;;;;;;;;;;;;;;;;;6315933;28;20392;-87
2023/10/19 15:46:16;;;;;;;;;;;;;;;;;;6311701;28;19912;-87
2023/10/19 15:49:17;;;;;;;;;;;;;;;;;;6320349;28;19953;-87
2023/10/19 15:52:19;;;;;;;;;;;;;;;;;;6312137;28;19912;-87
2023/10/19 15:55:21;;;;;;;;;;;;;;;;;;6325976;27;19912;-87
2023/10/19 15:58:21;;;;;;;;;;;;;;;;;;6343784;27;20400;-87
2023/10/19 16:01:22;;;;;;;;;;;;;;;;;;6313359;28;19927;-87
2023/10/19 16:04:22;;;;;;;;;;;;;;;;;;6323395;28;20038;-87
2023/10/19 16:07:22;;;;;;;;;;;;;;;;;;6328953;28;20006;-89
2023/10/19 16:10:22;;;;;;;;;;;;;;;;;;6325268;28;19943;-89
2023/10/19 16:13:22;;;;;;;;;;;;;;;;;;6328328;28;20457;-89
2023/10/19 16:16:23;;;;;;;;;;;;;;;;;;6350196;28;19960;-89
2023/10/19 16:19:23;;;;;;;;;;;;;;;;;;6331006;28;20447;-89
2023/10/19 16:22:26;;;;;;;;;;;;;;;;;;6352724;28;19916;-89
2023/10/19 16:25:26;;;;;;;;;;;;;;;;;;6336115;28;20037;-89
2023/10/19 16:28:26;;;;;;;;;;;;;;;;;;6324197;28;19916;-87
2023/10/19 16:31:27;;;;;;;;;;;;;;;;;;6313806;28;20545;-87
2023/10/19 16:34:27;;;;;;;;;;;;;;;;;;6328074;28;19938;-87
2023/10/19 16:37:28;;;;;;;;;;;;;;;;;;6346751;27;19922;-87
2023/10/19 16:40:31;;;;;;;;;;;;;;;;;;6327831;28;19922;-87
2023/10/19 16:43:31;;;;;;;;;;;;;;;;;;6338892;27;19922;-86
2023/10/19 16:46:31;;;;;;;;;;;;;;;;;;6321560;28;19916;-87
2023/10/19 16:49:34;;;;;;;;;;;;;;;;;;6338002;27;19922;-86
2023/10/19 16:52:34;;;;;;;;;;;;;;;;;;6313008;27;19912;-87
2023/10/19 16:55:35;;;;;;;;;;;;;;;;;;6309813;28;20076;-86
2023/10/19 16:58:35;;;;;;;;;;;;;;;;;;6304873;27;19998;-86
2023/10/19 17:01:36;;;;;;;;;;;;;;;;;;6310274;28;20301;-87
2023/10/19 17:04:36;;;;;;;;;;;;;;;;;;6305992;27;20456;-86
2023/10/19 17:07:37;;;;;;;;;;;;;;;;;;6311708;28;19916;-86
2023/10/19 17:10:37;;;;;;;;;;;;;;;;;;6313024;28;20003;-86
2023/10/19 17:13:38;;;;;;;;;;;;;;;;;;6315198;28;19912;-86
2023/10/19 17:16:38;;;;;;;;;;;;;;;;;;6314010;28;20016;-86
2023/10/19 17:19:38;;;;;;;;;;;;;;;;;;6317103;27;19923;-86
2023/10/19 17:22:38;;;;;;;;;;;;;;;;;;6333604;27;19920;-86
2023/10/19 17:25:40;;;;;;;;;;;;;;;;;;6315643;27;20369;-86
2023/10/19 17:28:40;;;;;;;;;;;;;;;;;;6322004;28;19912;-86
2023/10/19 17:31:40;;;;;;;;;;;;;;;;;;6315941;28;19916;-86
2023/10/19 17:34:40;;;;;;;;;;;;;;;;;;6299951;28;19951;-86
2023/10/19 17:37:40;;;;;;;;;;;;;;;;;;6329934;28;20003;-86
2023/10/19 17:40:40;;;;;;;;;;;;;;;;;;6331328;28;19959;-86
2023/10/19 17:43:40;;;;;;;;;;;;;;;;;;6310741;28;19916;-85
2023/10/19 17:46:41;;;;;;;;;;;;;;;;;;6306653;28;19928;-85
2023/10/19 17:49:41;;;;;;;;;;;;;;;;;;6308803;28;19923;-85
2023/10/19 17:52:43;;;;;;;;;;;;;;;;;;6310419;28;19957;-85
2023/10/19 17:55:43;;;;;;;;;;;;;;;;;;6308509;28;19912;-86
2023/10/19 17:58:43;;;;;;;;;;;;;;;;;;6307692;27;20264;-86
2023/10/19 18:01:45;;;;;;;;;;;;;;;;;;6328172;27;20071;-86
2023/10/19 18:04:49;;;;;;;;;;;;;;;;;;6320223;28;19955;-86
2023/10/19 18:07:52;;;;;;;;;;;;;;;;;;6341095;27;19923;-86
2023/10/19 18:10:52;;;;;;;;;;;;;;;;;;6330379;28;19927;-86
2023/10/19 18:13:52;;;;;;;;;;;;;;;;;;6319667;28;20357;-86
2023/10/19 18:16:53;;;;;;;;;;;;;;;;;;6313201;27;19923;-86
2023/10/19 18:19:54;;;;;;;;;;;;;;;;;;6310377;28;20425;-85
2023/10/19 18:22:54;;;;;;;;;;;;;;;;;;6315142;28;19985;-85
2023/10/19 18:25:55;;;;;;;;;;;;;;;;;;6301746;28;20294;-86
2023/10/19 18:28:55;;;;;;;;;;;;;;;;;;6331489;27;19922;-86
2023/10/19 18:31:56;;;;;;;;;;;;;;;;;;6338611;27;19923;-86
2023/10/19 18:34:56;;;;;;;;;;;;;;;;;;6331438;28;19912;-86
2023/10/19 18:37:56;;;;;;;;;;;;;;;;;;6311143;28;19961;-86
2023/10/19 18:40:56;;;;;;;;;;;;;;;;;;6323364;28;19911;-86
2023/10/19 18:43:58;;;;;;;;;;;;;;;;;;6327428;28;19919;-86
2023/10/19 18:46:58;;;;;;;;;;;;;;;;;;6323274;28;19919;-89
2023/10/19 18:50:00;;;;;;;;;;;;;;;;;;6305164;28;19912;-89
2023/10/19 18:53:00;;;;;;;;;;;;;;;;;;6316175;28;19916;-88
2023/10/19 18:56:01;;;;;;;;;;;;;;;;;;6304432;28;19965;-89
2023/10/19 18:59:01;;;;;;;;;;;;;;;;;;6337262;28;20300;-89
2023/10/19 19:02:01;;;;;;;;;;;;;;;;;;6327926;28;19977;-89
2023/10/19 19:05:01;;;;;;;;;;;;;;;;;;6310303;28;19918;-89
2023/10/19 19:08:01;;;;;;;;;;;;;;;;;;6336127;27;19995;-89
2023/10/19 19:11:02;;;;;;;;;;;;;;;;;;6310659;28;19920;-89
2023/10/19 19:14:03;;;;;;;;;;;;;;;;;;6315753;27;19912;-89
2023/10/19 19:17:05;;;;;;;;;;;;;;;;;;6337276;27;19965;-88
2023/10/19 19:20:10;;;;;;;;;;;;;;;;;;6337465;27;19907;-89
2023/10/19 19:23:11;;;;;;;;;;;;;;;;;;6308545;27;19920;-89
2023/10/19 19:26:11;;;;;;;;;;;;;;;;;;6331278;27;20048;-89
2023/10/19 19:29:11;;;;;;;;;;;;;;;;;;6338804;27;19929;-89
2023/10/19 19:32:11;;;;;;;;;;;;;;;;;;6315065;28;19922;-89
2023/10/19 19:35:12;;;;;;;;;;;;;;;;;;6331668;28;20018;-89
2023/10/19 19:38:13;;;;;;;;;;;;;;;;;;6332544;27;19911;-89
2023/10/19 19:41:13;;;;;;;;;;;;;;;;;;6327302;28;19937;-89
2023/10/19 19:44:13;;;;;;;;;;;;;;;;;;6327562;27;19942;-89
2023/10/19 19:47:13;;;;;;;;;;;;;;;;;;6325637;27;19923;-89
2023/10/19 19:50:14;;;;;;;;;;;;;;;;;;6310064;28;19919;-89
2023/10/19 19:53:14;;;;;;;;;;;;;;;;;;6314778;28;20451;-89
2023/10/19 19:56:14;;;;;;;;;;;;;;;;;;6316773;28;19908;-89
2023/10/19 19:59:14;;;;;;;;;;;;;;;;;;6318565;27;20015;-86
2023/10/19 20:02:14;;;;;;;;;;;;;;;;;;6316394;28;19968;-86
2023/10/19 20:05:14;;;;;;;;;;;;;;;;;;6332385;27;19916;-85
2023/10/19 20:08:14;;;;;;;;;;;;;;;;;;6324976;28;19912;-85
2023/10/19 20:11:15;;;;;;;;;;;;;;;;;;6325465;28;19908;-85
2023/10/19 20:14:15;;;;;;;;;;;;;;;;;;6333414;28;19916;-85
2023/10/19 20:17:15;;;;;;;;;;;;;;;;;;6339667;27;19912;-85
2023/10/19 20:20:15;;;;;;;;;;;;;;;;;;6338901;28;19919;-84
2023/10/19 20:23:19;;;;;;;;;;;;;;;;;;6323328;28;20274;-84
2023/10/19 20:26:20;;;;;;;;;;;;;;;;;;6328220;28;19916;-85
2023/10/19 20:29:20;;;;;;;;;;;;;;;;;;6330432;27;19916;-85
2023/10/19 20:32:20;;;;;;;;;;;;;;;;;;6330925;28;19916;-84
2023/10/19 20:35:20;;;;;;;;;;;;;;;;;;6338147;28;19960;-84
2023/10/19 20:38:21;;;;;;;;;;;;;;;;;;6320056;27;19912;-84
2023/10/19 20:41:21;;;;;;;;;;;;;;;;;;6322671;27;19908;-84
2023/10/19 20:44:29;;;;;;;;;;;;;;;;;;6327595;28;19931;-84
2023/10/19 20:47:29;;;;;;;;;;;;;;;;;;6312065;28;19919;-85
2023/10/19 20:50:29;;;;;;;;;;;;;;;;;;6334905;27;20349;-84